Terminal Aerodrome Forecast
Issued by NWS

Home | Current Version | Previous Version | Text Only | Print | Product List | Glossary On
Versions: 1 2 3 4 5 6 7 8 9 10 11 12 13 14 15 16
000
FTUS42 KMLB 311740
TAFISM
TAF
KISM 311740Z 3118/0118 VRB05KT P6SM VCTS SCT035CB SCT250
      TEMPO 3120/3123 3SM TSRA BKN030CB
     FM010000 VRB03KT P6SM FEW035 SCT100 BKN250
     FM011500 VRB05KT P6SM SCT035=

USA.gov is the U.S. government's official web portal to all federal, state and local government web resources and services.